createdAt,value
2018-10-21T00:02:04.272Z,5.37
2018-10-21T00:04:32.334Z,7.50
2018-10-21T00:07:00.403Z,6.00
2018-10-21T00:09:28.478Z,5.10
2018-10-21T00:11:56.549Z,4.78
2018-10-21T00:14:24.598Z,3.75
2018-10-21T00:16:52.668Z,8.03
2018-10-21T00:19:20.752Z,6.92
2018-10-21T00:21:48.980Z,5.80
2018-10-21T00:24:17.041Z,6.87
2018-10-21T00:26:45.108Z,7.50
2018-10-21T00:29:13.174Z,5.05
2018-10-21T00:31:41.268Z,7.50
2018-10-21T00:34:09.332Z,4.50
2018-10-21T00:36:37.397Z,8.23
2018-10-21T00:39:08.591Z,7.58
2018-10-21T00:41:36.600Z,6.90
2018-10-21T00:44:04.981Z,5.17
2018-10-21T00:46:33.049Z,6.00
2018-10-21T00:49:01.108Z,5.45
2018-10-21T00:51:29.210Z,4.75
2018-10-21T00:53:57.344Z,7.30
2018-10-21T00:56:25.402Z,7.37
2018-10-21T00:58:53.464Z,4.60
2018-10-21T01:01:21.532Z,5.45
2018-10-21T01:03:49.602Z,4.72
2018-10-21T01:06:17.681Z,3.87
2018-10-21T01:08:45.765Z,12.37
2018-10-21T01:11:13.854Z,3.65
2018-10-21T01:13:41.936Z,5.50
2018-10-21T01:16:10.004Z,4.35
2018-10-21T01:18:38.060Z,7.15
2018-10-21T01:21:06.173Z,7.30
2018-10-21T01:23:34.210Z,2.92
2018-10-21T01:26:02.264Z,5.00
2018-10-21T01:28:30.352Z,5.65
2018-10-21T01:30:58.436Z,6.33
2018-10-21T01:33:26.519Z,4.50
2018-10-21T01:35:54.590Z,7.60
2018-10-21T01:38:22.728Z,3.80
2018-10-21T01:40:53.026Z,5.65
2018-10-21T01:43:23.337Z,5.53
2018-10-21T01:45:51.423Z,5.70
2018-10-21T01:48:20.628Z,4.00
2018-10-21T01:50:48.692Z,6.55
2018-10-21T01:53:17.587Z,7.50
2018-10-21T01:55:45.636Z,5.15
2018-10-21T01:58:13.689Z,4.40
2018-10-21T02:00:42.299Z,4.37
2018-10-21T02:03:10.487Z,5.10
2018-10-21T02:05:38.954Z,4.22
2018-10-21T02:08:07.027Z,6.37
2018-10-21T02:10:35.105Z,7.15
2018-10-21T02:13:03.201Z,5.97
2018-10-21T02:15:31.240Z,3.95
2018-10-21T02:17:59.300Z,7.45
2018-10-21T02:20:27.780Z,8.68
2018-10-21T02:22:55.847Z,6.35
2018-10-21T02:25:23.880Z,6.92
2018-10-21T02:27:52.716Z,5.12
2018-10-21T02:30:21.999Z,5.90
2018-10-21T02:32:50.694Z,5.60
2018-10-21T02:35:19.276Z,9.33
2018-10-21T02:37:47.661Z,6.83
2018-10-21T02:41:29.447Z,6.53
2018-10-21T02:43:57.511Z,9.70
2018-10-21T02:46:25.789Z,5.60
2018-10-21T02:48:54.895Z,7.03
2018-10-21T02:51:22.945Z,8.33
2018-10-21T02:53:51.072Z,8.10
2018-10-21T02:56:19.120Z,8.83
2018-10-21T02:58:47.208Z,6.67
2018-10-21T03:01:15.272Z,10.03
2018-10-21T03:03:43.328Z,6.00
2018-10-21T03:06:11.374Z,7.50
2018-10-21T03:08:39.876Z,8.50
2018-10-21T03:11:07.984Z,6.65
2018-10-21T03:13:36.073Z,8.95
2018-10-21T03:16:04.580Z,6.03
2018-10-21T03:18:32.756Z,9.95
2018-10-21T03:21:01.709Z,11.57
2018-10-21T03:23:29.724Z,9.25
2018-10-21T03:25:57.981Z,9.90
2018-10-21T03:28:26.037Z,9.08
2018-10-21T03:30:54.128Z,11.55
2018-10-21T03:33:22.383Z,10.15
2018-10-21T03:35:50.259Z,11.88
2018-10-21T03:38:18.344Z,8.45
2018-10-21T03:40:46.411Z,11.25
2018-10-21T03:43:14.475Z,11.65
2018-10-21T03:45:42.545Z,12.85
2018-10-21T03:48:10.616Z,11.45
2018-10-21T03:50:38.672Z,11.05
2018-10-21T03:53:06.732Z,10.25
2018-10-21T03:55:36.566Z,9.53
2018-10-21T03:58:05.368Z,10.53
2018-10-21T04:00:33.468Z,9.10
2018-10-21T04:03:01.569Z,9.33
2018-10-21T04:05:29.661Z,13.43
2018-10-21T04:07:57.720Z,11.30
2018-10-21T04:10:25.800Z,7.22
2018-10-21T04:12:53.856Z,10.78
2018-10-21T04:15:21.921Z,14.20
2018-10-21T04:17:49.983Z,8.73
2018-10-21T04:20:18.060Z,11.15
2018-10-21T04:23:01.748Z,10.00
2018-10-21T04:25:30.920Z,14.38
2018-10-21T04:27:59.837Z,12.37
2018-10-21T04:30:30.038Z,11.18
2018-10-21T04:34:03.312Z,9.23
2018-10-21T04:36:32.733Z,8.98
2018-10-21T04:40:14.163Z,12.28
2018-10-21T04:42:42.309Z,10.45
2018-10-21T04:45:11.084Z,9.98
2018-10-21T04:47:39.139Z,9.45
2018-10-21T04:50:08.490Z,13.30
2018-10-21T04:52:36.542Z,8.85
2018-10-21T04:55:09.197Z,10.05
2018-10-21T04:57:38.381Z,9.88
2018-10-21T05:00:11.376Z,10.75
2018-10-21T05:02:39.473Z,8.30
2018-10-21T05:05:08.384Z,10.25
2018-10-21T05:07:36.674Z,12.50
2018-10-21T05:10:07.700Z,12.20
2018-10-21T05:12:35.700Z,13.25
2018-10-21T05:15:03.815Z,12.25
2018-10-21T05:17:31.855Z,13.32
2018-10-21T05:19:59.924Z,10.45
2018-10-21T05:22:27.996Z,9.13
2018-10-21T05:24:56.076Z,10.68
2018-10-21T05:27:24.141Z,11.65
2018-10-21T05:29:52.224Z,12.55
2018-10-21T05:32:20.297Z,12.98
2018-10-21T05:34:48.374Z,13.83
2018-10-21T05:37:16.457Z,8.30
2018-10-21T05:39:44.520Z,9.08
2018-10-21T05:42:12.580Z,10.88
2018-10-21T05:44:40.677Z,12.65
2018-10-21T05:47:08.760Z,11.35
2018-10-21T05:49:36.840Z,10.32
2018-10-21T05:52:04.999Z,8.43
2018-10-21T05:54:37.228Z,7.70
2018-10-21T05:57:05.402Z,13.88
2018-10-21T05:59:33.451Z,8.78
2018-10-21T06:02:01.541Z,12.25
2018-10-21T06:04:29.605Z,12.55
2018-10-21T06:06:57.680Z,8.43
2018-10-21T06:09:25.740Z,12.13
2018-10-21T06:11:53.799Z,10.10
2018-10-21T06:14:21.900Z,14.85
2018-10-21T06:16:52.529Z,12.23
2018-10-21T06:19:24.557Z,11.08
2018-10-21T06:21:54.455Z,12.07
2018-10-21T06:24:22.496Z,10.80
2018-10-21T06:26:50.572Z,10.75
2018-10-21T06:29:18.636Z,12.18
2018-10-21T06:31:46.697Z,14.25
2018-10-21T06:34:14.760Z,12.60
2018-10-21T06:36:42.893Z,14.13
2018-10-21T06:39:10.991Z,9.75
2018-10-21T06:41:38.953Z,17.00
2018-10-21T06:44:07.132Z,11.63
2018-10-21T06:46:35.216Z,13.78
2018-10-21T06:49:03.329Z,13.25
2018-10-21T06:51:31.409Z,10.70
2018-10-21T06:53:59.548Z,14.50
2018-10-21T06:56:27.666Z,15.18
2018-10-21T06:58:55.673Z,16.93
2018-10-21T07:01:23.753Z,15.78
2018-10-21T07:03:51.816Z,16.95
2018-10-21T07:06:23.159Z,15.83
2018-10-21T07:08:52.387Z,19.75
2018-10-21T07:11:20.455Z,14.45
2018-10-21T07:13:48.515Z,19.35
2018-10-21T07:16:16.783Z,21.02
2018-10-21T07:18:45.619Z,23.85
2018-10-21T07:21:13.800Z,22.98
2018-10-21T07:23:41.913Z,23.35
2018-10-21T07:26:10.024Z,23.45
2018-10-21T07:28:38.144Z,28.70
2018-10-21T07:31:06.204Z,17.42
2018-10-21T07:33:34.260Z,19.55
2018-10-21T07:36:02.328Z,20.10
2018-10-21T07:38:30.409Z,22.25
2018-10-21T07:40:58.469Z,26.68
2018-10-21T07:43:26.584Z,28.40
2018-10-21T07:45:54.659Z,28.35
2018-10-21T07:48:22.720Z,27.13
2018-10-21T07:50:50.797Z,21.77
2018-10-21T07:53:18.895Z,25.50
2018-10-21T07:55:47.016Z,28.73
2018-10-21T07:58:15.072Z,26.30
2018-10-21T08:00:43.115Z,21.48
2018-10-21T08:03:11.196Z,20.85
2018-10-21T08:05:50.576Z,22.70
2018-10-21T08:08:26.303Z,24.32
2018-10-21T08:10:54.316Z,19.73
2018-10-21T08:13:24.669Z,24.98
2018-10-21T08:15:52.752Z,24.00
2018-10-21T08:18:20.824Z,20.52
2018-10-21T08:20:49.896Z,20.30
2018-10-21T08:23:18.694Z,26.23
2018-10-21T08:25:48.189Z,24.20
2018-10-21T08:28:16.409Z,26.07
2018-10-21T08:30:44.385Z,26.80
2018-10-21T08:33:12.496Z,32.45
2018-10-21T08:35:40.608Z,27.35
2018-10-21T08:38:08.738Z,29.27
2018-10-21T08:40:36.804Z,26.65
2018-10-21T08:43:05.185Z,33.10
2018-10-21T08:45:33.280Z,24.47
2018-10-21T08:48:01.373Z,24.55
2018-10-21T08:50:29.434Z,29.65
2018-10-21T08:52:57.524Z,24.20
2018-10-21T08:55:25.634Z,32.42
2018-10-21T08:57:53.812Z,28.17
2018-10-21T09:00:20.948Z,25.35
2018-10-21T09:02:49.018Z,35.30
2018-10-21T09:05:18.453Z,30.77
2018-10-21T09:07:46.792Z,32.85
2018-10-21T09:10:17.726Z,34.30
2018-10-21T09:12:45.670Z,26.35
2018-10-21T09:15:15.432Z,26.42
2018-10-21T09:17:43.440Z,29.65
2018-10-21T09:20:13.717Z,26.37
2018-10-21T09:22:41.781Z,31.35
2018-10-21T09:25:10.772Z,26.65
2018-10-21T09:27:39.648Z,31.73
2018-10-21T09:30:09.064Z,25.45
2018-10-21T09:32:37.199Z,30.45
2018-10-21T09:35:06.328Z,29.25
2018-10-21T09:37:34.421Z,28.65
2018-10-21T09:40:02.526Z,31.05
2018-10-21T09:42:30.576Z,27.22
2018-10-21T09:44:58.665Z,30.75
2018-10-21T09:47:26.825Z,29.87
2018-10-21T09:49:54.945Z,35.03
2018-10-21T09:52:22.999Z,24.10
2018-10-21T09:54:51.129Z,29.23
2018-10-21T09:57:19.181Z,22.98
2018-10-21T09:59:47.265Z,34.35
2018-10-21T10:02:20.576Z,28.42
2018-10-21T10:04:48.708Z,35.13
2018-10-21T10:07:16.885Z,29.70
2018-10-21T10:09:44.905Z,34.80
2018-10-21T10:12:13.011Z,25.82
2018-10-21T10:14:41.156Z,29.95
2018-10-21T10:17:09.232Z,31.82
2018-10-21T10:19:37.326Z,29.55
2018-10-21T10:22:05.460Z,26.68
2018-10-21T10:24:33.453Z,28.80
2018-10-21T10:27:01.560Z,40.03
2018-10-21T10:29:29.680Z,33.35
2018-10-21T10:31:57.833Z,28.00
2018-10-21T10:34:25.925Z,29.55
2018-10-21T10:36:54.056Z,30.80
2018-10-21T10:39:22.097Z,32.08
2018-10-21T10:41:50.192Z,35.10
2018-10-21T10:44:18.292Z,38.10
2018-10-21T10:46:46.420Z,33.35
2018-10-21T10:49:14.687Z,29.52
2018-10-21T10:51:42.688Z,35.25
2018-10-21T10:54:10.748Z,32.45
2018-10-21T10:56:38.828Z,32.03
2018-10-21T10:59:06.979Z,29.92
2018-10-21T11:01:35.080Z,29.40
2018-10-21T11:04:03.197Z,31.48
2018-10-21T11:06:31.271Z,28.45
2018-10-21T11:08:59.385Z,33.75
2018-10-21T11:11:27.510Z,33.23
2018-10-21T11:13:55.592Z,26.37
2018-10-21T11:16:23.686Z,30.48
2018-10-21T11:18:51.761Z,29.77
2018-10-21T11:21:19.852Z,26.60
2018-10-21T11:23:47.958Z,31.27
2018-10-21T11:26:16.054Z,34.33
2018-10-21T11:28:44.118Z,33.67
2018-10-21T11:31:12.291Z,36.65
2018-10-21T11:33:40.299Z,28.62
2018-10-21T11:36:08.377Z,37.98
2018-10-21T11:38:36.429Z,28.98
2018-10-21T11:41:04.563Z,29.98
2018-10-21T11:43:32.640Z,35.92
2018-10-21T11:46:00.800Z,30.75
2018-10-21T11:48:28.815Z,31.05
2018-10-21T11:50:56.890Z,31.05
2018-10-21T11:53:24.957Z,38.85
2018-10-21T11:55:53.030Z,34.25
2018-10-21T11:58:21.131Z,31.37
2018-10-21T12:00:49.205Z,38.23
2018-10-21T12:03:17.304Z,36.03
2018-10-21T12:05:45.371Z,34.03
2018-10-21T12:08:13.747Z,30.70
2018-10-21T12:10:41.804Z,33.13
2018-10-21T12:13:09.924Z,26.80
2018-10-21T12:15:38.008Z,27.58
2018-10-21T12:18:06.449Z,29.23
2018-10-21T12:20:34.505Z,31.85
2018-10-21T12:23:02.659Z,28.17
2018-10-21T12:25:30.668Z,23.07
2018-10-21T12:27:58.727Z,24.82
2018-10-21T12:30:26.774Z,27.22
2018-10-21T12:32:54.857Z,21.33
2018-10-21T12:35:22.899Z,31.97
2018-10-21T12:37:50.971Z,19.60
2018-10-21T12:40:19.060Z,22.45
2018-10-21T12:42:47.112Z,18.80
2018-10-21T12:45:15.282Z,22.87
2018-10-21T12:47:43.280Z,23.22
2018-10-21T12:50:11.336Z,22.45
2018-10-21T12:52:39.400Z,22.50
2018-10-21T12:55:08.369Z,22.52
2018-10-21T12:57:37.055Z,20.82
2018-10-21T13:00:06.444Z,20.97
2018-10-21T13:02:35.094Z,18.95
2018-10-21T13:05:03.906Z,20.82
2018-10-21T13:07:31.999Z,15.23
2018-10-21T13:10:00.118Z,27.65
2018-10-21T13:12:28.144Z,15.48
2018-10-21T13:14:56.233Z,16.90
2018-10-21T13:17:24.381Z,18.75
2018-10-21T13:19:52.492Z,19.15
2018-10-21T13:22:21.280Z,19.40
2018-10-21T13:24:50.513Z,24.77
2018-10-21T13:27:18.604Z,16.87
2018-10-21T13:29:46.681Z,16.93
2018-10-21T13:32:14.772Z,20.52
2018-10-21T13:34:42.957Z,17.62
2018-10-21T13:37:11.147Z,18.23
2018-10-21T13:39:39.136Z,19.07
2018-10-21T13:42:07.203Z,13.78
2018-10-21T13:44:35.274Z,17.75
2018-10-21T13:47:03.341Z,15.85
2018-10-21T13:49:31.393Z,15.72
2018-10-21T13:51:59.676Z,13.40
2018-10-21T13:54:27.537Z,19.65
2018-10-21T13:56:55.608Z,17.00
2018-10-21T13:59:23.676Z,17.35
2018-10-21T14:01:51.728Z,15.25
2018-10-21T14:04:19.871Z,15.28
2018-10-21T14:06:47.945Z,14.55
2018-10-21T14:09:15.948Z,16.90
2018-10-21T14:11:44.022Z,15.18
2018-10-21T14:14:12.376Z,19.12
2018-10-21T14:16:40.800Z,16.35
2018-10-21T14:19:09.143Z,15.05
2018-10-21T14:21:37.208Z,14.68
2018-10-21T14:24:05.418Z,18.30
2018-10-21T14:26:33.528Z,13.43
2018-10-21T14:29:01.602Z,14.73
2018-10-21T14:31:29.653Z,17.40
2018-10-21T14:33:57.714Z,15.40
2018-10-21T14:36:25.848Z,17.98
2018-10-21T14:38:53.983Z,13.78
2018-10-21T14:41:22.052Z,16.48
2018-10-21T14:43:50.448Z,15.72
2018-10-21T14:46:18.512Z,16.97
2018-10-21T14:48:46.601Z,15.88
2018-10-21T14:51:14.748Z,18.17
2018-10-21T14:53:42.731Z,10.88
2018-10-21T14:56:10.843Z,12.63
2018-10-21T14:58:38.881Z,14.13
2018-10-21T15:01:06.948Z,17.60
2018-10-21T15:03:35.305Z,11.38
2018-10-21T15:06:03.427Z,10.75
2018-10-21T15:08:31.443Z,13.22
2018-10-21T15:10:59.513Z,13.25
2018-10-21T15:13:27.587Z,13.13
2018-10-21T15:15:55.695Z,10.95
2018-10-21T15:18:23.737Z,13.08
2018-10-21T15:20:51.813Z,11.10
2018-10-21T15:23:19.895Z,10.30
2018-10-21T15:25:47.949Z,8.70
2018-10-21T15:28:16.059Z,12.15
2018-10-21T15:30:44.108Z,16.60
2018-10-21T15:33:12.181Z,8.93
2018-10-21T15:35:40.235Z,12.73
2018-10-21T15:38:08.800Z,13.85
2018-10-21T15:40:36.796Z,12.00
2018-10-21T15:43:04.902Z,11.28
2018-10-21T15:45:33.016Z,13.80
2018-10-21T15:48:01.046Z,18.23
2018-10-21T15:50:29.155Z,10.23
2018-10-21T15:52:57.166Z,11.12
2018-10-21T15:55:25.228Z,13.25
2018-10-21T15:57:53.288Z,13.13
2018-10-21T16:00:21.565Z,13.58
2018-10-21T16:02:49.628Z,12.45
2018-10-21T16:05:17.701Z,9.10
2018-10-21T16:07:45.752Z,9.83
2018-10-21T16:10:13.835Z,13.72
2018-10-21T16:12:41.860Z,18.77
2018-10-21T16:15:12.421Z,15.53
2018-10-21T16:17:40.481Z,9.68
2018-10-21T16:20:08.652Z,13.28
2018-10-21T16:22:38.257Z,17.57
2018-10-21T16:25:07.150Z,13.80
2018-10-21T16:27:35.201Z,12.18
2018-10-21T16:30:03.340Z,13.78
2018-10-21T16:32:31.514Z,12.00
2018-10-21T16:34:59.460Z,13.03
2018-10-21T16:37:27.587Z,13.48
2018-10-21T16:39:55.640Z,12.88
2018-10-21T16:42:23.692Z,11.18
2018-10-21T16:44:51.788Z,14.05
2018-10-21T16:47:19.852Z,15.08
2018-10-21T16:49:47.928Z,17.45
2018-10-21T16:52:15.979Z,16.30
2018-10-21T16:54:44.105Z,13.30
2018-10-21T16:57:12.178Z,13.98
2018-10-21T16:59:40.360Z,14.90
2018-10-21T17:02:08.380Z,16.25
2018-10-21T17:04:36.435Z,18.70
2018-10-21T17:07:04.630Z,14.13
2018-10-21T17:09:32.821Z,13.48
2018-10-21T17:12:00.713Z,19.52
2018-10-21T17:14:28.768Z,13.95
2018-10-21T17:16:56.824Z,16.97
2018-10-21T17:19:24.867Z,18.55
2018-10-21T17:21:52.941Z,15.90
2018-10-21T17:24:21.032Z,21.77
2018-10-21T17:26:49.205Z,12.65
2018-10-21T17:29:17.247Z,15.78
2018-10-21T17:31:45.317Z,11.68
2018-10-21T17:34:13.365Z,12.78
2018-10-21T17:36:41.455Z,15.05
2018-10-21T17:39:11.780Z,16.37
2018-10-21T17:41:40.678Z,17.00
2018-10-21T17:44:08.738Z,14.23
2018-10-21T17:46:37.199Z,15.98
2018-10-21T17:49:05.273Z,15.55
2018-10-21T17:51:33.372Z,12.13
2018-10-21T17:54:01.479Z,13.00
2018-10-21T17:56:29.540Z,13.13
2018-10-21T17:58:57.612Z,16.55
2018-10-21T18:01:25.704Z,15.38
2018-10-21T18:03:53.762Z,15.13
2018-10-21T18:06:21.884Z,15.28
2018-10-21T18:08:49.956Z,12.95
2018-10-21T18:11:18.022Z,14.03
2018-10-21T18:13:46.123Z,11.12
2018-10-21T18:16:14.260Z,11.97
2018-10-21T18:18:42.259Z,15.72
2018-10-21T18:21:10.324Z,12.28
2018-10-21T18:23:38.399Z,13.00
2018-10-21T18:26:06.800Z,11.45
2018-10-21T18:28:34.767Z,13.22
2018-10-21T18:31:08.851Z,15.45
2018-10-21T18:33:42.737Z,11.15
2018-10-21T18:36:10.788Z,16.07
2018-10-21T18:38:42.017Z,11.35
2018-10-21T18:41:10.384Z,14.47
2018-10-21T18:43:38.349Z,13.45
2018-10-21T18:46:06.441Z,12.23
2018-10-21T18:48:34.523Z,14.87
2018-10-21T18:51:02.793Z,13.93
2018-10-21T18:53:30.881Z,12.00
2018-10-21T18:55:58.975Z,14.35
2018-10-21T18:58:27.107Z,15.53
2018-10-21T19:00:55.129Z,15.13
2018-10-21T19:03:23.176Z,12.78
2018-10-21T19:05:51.235Z,16.77
2018-10-21T19:08:19.313Z,13.68
2018-10-21T19:10:47.737Z,14.65
2018-10-21T19:13:15.915Z,13.20
2018-10-21T19:15:43.947Z,11.00
2018-10-21T19:18:12.029Z,13.32
2018-10-21T19:20:40.097Z,10.63
2018-10-21T19:23:08.188Z,19.37
2018-10-21T19:25:36.289Z,17.48
2018-10-21T19:28:04.501Z,13.32
2018-10-21T19:30:33.512Z,14.75
2018-10-21T19:33:01.581Z,11.48
2018-10-21T19:35:29.661Z,15.00
2018-10-21T19:37:57.747Z,12.55
2018-10-21T19:40:25.828Z,12.75
2018-10-21T19:42:53.977Z,13.00
2018-10-21T19:45:21.976Z,11.25
2018-10-21T19:47:50.253Z,13.55
2018-10-21T19:50:18.380Z,13.95
2018-10-21T19:52:46.591Z,12.88
2018-10-21T19:55:14.840Z,14.87
2018-10-21T19:57:43.185Z,13.25
2018-10-21T20:00:13.722Z,9.20
2018-10-21T20:02:41.876Z,13.20
2018-10-21T20:05:10.478Z,13.93
2018-10-21T20:07:38.742Z,14.53
2018-10-21T20:10:08.971Z,14.30
2018-10-21T20:12:37.237Z,9.13
2018-10-21T20:15:06.237Z,10.95
2018-10-21T20:17:34.332Z,9.53
2018-10-21T20:20:02.392Z,9.93
2018-10-21T20:22:30.440Z,9.00
2018-10-21T20:24:58.520Z,12.55
2018-10-21T20:27:26.598Z,13.00
2018-10-21T20:29:54.656Z,13.93
2018-10-21T20:32:22.728Z,10.50
2018-10-21T20:34:50.813Z,11.20
2018-10-21T20:37:18.932Z,16.12
2018-10-21T20:39:47.010Z,8.63
2018-10-21T20:42:15.115Z,8.13
2018-10-21T20:44:43.153Z,11.60
2018-10-21T20:47:11.228Z,11.00
2018-10-21T20:49:39.692Z,16.07
2018-10-21T20:52:07.794Z,13.00
2018-10-21T20:54:41.365Z,9.10
2018-10-21T20:57:10.525Z,13.40
2018-10-21T20:59:40.025Z,13.25
2018-10-21T21:02:08.980Z,14.23
2018-10-21T21:04:37.089Z,13.58
2018-10-21T21:07:05.844Z,10.95
2018-10-21T21:09:33.897Z,13.30
2018-10-21T21:12:01.981Z,12.30
2018-10-21T21:14:30.060Z,10.70
2018-10-21T21:16:58.114Z,12.30
2018-10-21T21:19:26.200Z,18.27
2018-10-21T21:21:54.248Z,9.95
2018-10-21T21:24:22.345Z,10.98
2018-10-21T21:26:50.392Z,10.40
2018-10-21T21:29:18.572Z,13.85
2018-10-21T21:31:47.026Z,14.90
2018-10-21T21:34:15.742Z,8.13
2018-10-21T21:36:43.790Z,11.38
2018-10-21T21:39:14.079Z,11.65
2018-10-21T21:41:43.438Z,13.98
2018-10-21T21:44:11.501Z,12.75
2018-10-21T21:46:40.327Z,17.15
2018-10-21T21:49:09.467Z,15.05
2018-10-21T21:51:37.600Z,17.62
2018-10-21T21:54:06.540Z,16.07
2018-10-21T21:56:34.609Z,17.37
2018-10-21T21:59:02.670Z,13.05
2018-10-21T22:01:30.716Z,17.87
2018-10-21T22:03:58.789Z,14.73
2018-10-21T22:06:26.927Z,19.55
2018-10-21T22:08:54.978Z,21.37
2018-10-21T22:11:23.036Z,18.87
2018-10-21T22:13:51.090Z,21.73
2018-10-21T22:16:19.157Z,15.40
2018-10-21T22:18:47.200Z,13.53
2018-10-21T22:21:15.267Z,12.30
2018-10-21T22:23:43.311Z,14.65
2018-10-21T22:26:11.365Z,14.15
2018-10-21T22:28:39.420Z,17.25
2018-10-21T22:31:07.478Z,14.25
2018-10-21T22:33:35.533Z,15.55
2018-10-21T22:36:03.598Z,11.15
2018-10-21T22:38:31.728Z,19.10
2018-10-21T22:40:59.796Z,20.95
2018-10-21T22:43:27.889Z,14.33
2018-10-21T22:45:56.006Z,15.93
2018-10-21T22:48:24.064Z,15.55
2018-10-21T22:50:52.140Z,17.45
2018-10-21T22:53:20.211Z,18.05
2018-10-21T22:55:48.264Z,14.53
2018-10-21T22:58:16.379Z,13.50
2018-10-21T23:00:44.396Z,15.30
2018-10-21T23:03:12.456Z,13.98
2018-10-21T23:05:40.516Z,14.50
2018-10-21T23:08:08.576Z,18.90
2018-10-21T23:10:36.630Z,13.20
2018-10-21T23:13:04.676Z,17.05
2018-10-21T23:15:32.765Z,16.70
2018-10-21T23:18:00.834Z,15.23
2018-10-21T23:20:28.891Z,20.68
2018-10-21T23:22:56.976Z,18.50
2018-10-21T23:25:25.045Z,20.88
2018-10-21T23:27:53.088Z,19.40
2018-10-21T23:30:21.260Z,18.60
2018-10-21T23:32:49.237Z,23.85
2018-10-21T23:35:17.312Z,20.62
2018-10-21T23:37:45.389Z,16.17
2018-10-21T23:40:13.641Z,22.15
2018-10-21T23:42:41.625Z,14.73
2018-10-21T23:45:09.665Z,23.35
2018-10-21T23:47:37.763Z,19.57
2018-10-21T23:50:06.327Z,16.70
2018-10-21T23:52:34.392Z,18.73
2018-10-21T23:55:02.448Z,16.30
2018-10-21T23:57:30.528Z,17.75
2018-10-21T23:59:58.609Z,21.27
